aviador You're here:

LFCR Decoded Metar

RODEZ in FRANCE
Report Time2018-05-28 07:30:00
UTC Time2018-05-28 07:59:47
Flight Rules ifr IFR
WindVRB at 02 kt
Visibility9999 m
Phenomena:Thuderstorm Rain
Clouds:Broken 008 Hf
Scattered CB 020 Hf
Few 033 Hf
Expected CloudBase > 400 ft AGL from Temp-Dew spread
Ceiling800 ft
Temp14°C (ISA +3)
Dew Point13°C (94% RH)
QNH1016 hPa
Density Alt2,339 ft
Elevation1,903 ft
Report Wrong Elevation
Raw Report
LFCR 280730Z AUTO VRB02KT 9999 FEW033 14/13 Q1016 TEMPO 4000 TSRA
BKN008 SCT020CB BKN040=

Extra information for LFCR:More info

Metar Taf Metar & Taf Last 4 Metars F.Rules Stats Wind Profile Meteogram Temp Stats Airport Information Weather charts Add Link Nearby VenuesMetar ALERT Operation Metar Decoded Social comments